Eriksdale, Canada
Current Conditions -  °F | °C
As of 10:00 PM on Tuesday 21 Oct 2014 (Local Time) from CYPG Reporting Station
Few Clouds Few Clouds  
Wind Chill: 57°   Ceiling: Unl
Heat Index: 57°   Visibility: 15mi
Dew Point: 43°   Wind: 25mph
Humidity: 59%   Direction: 140°SE
Pressure: 29.75"   Gusts: 33mph
Location:  50.87°N, 98.1°W
Report Text: CYPG 220300Z 14022G29KT 15SM FEW140 FEW220 14/06 A2975 RMKAC1CI1 SLP081
Loading
Personal Weather Stations






























Interactive Weather Map
Tropical Storm Tracking
New forecast layout! Learn more

10-Day Weather Forecast

Advertisements
Track Severe Weather on mobile